Axtell, Utah
Current Conditions -  °F | °C
As of 2:35 PM on Friday 24 Oct 2014 (Local Time) from KDTA Reporting Station
Clear Clear  
Wind Chill: 78°   Ceiling: Unl
Heat Index: 78°   Visibility: 10mi
Dew Point: 26°   Wind: 13mph
Humidity: 14%   Direction: 210°SSW
Pressure: 30.16"   Gusts: NA
Location:  39.06°N, 111.82°W
Report Text: KDTA 242035Z AUTO 21011KT 10SM CLR 26/M03 A3016 RMK AO1 T02561035
Loading
Personal Weather Stations






























Interactive Weather Map
Tropical Storm Tracking
New forecast layout! Learn more

10-Day Weather Forecast

Advertisements
Track Severe Weather on mobile